createdAt,value
2019-05-29T00:01:19.844Z,14.47
2019-05-29T00:03:46.025Z,14.43
2019-05-29T00:06:14.470Z,14.41
2019-05-29T00:08:43.163Z,14.43
2019-05-29T00:11:12.254Z,14.40
2019-05-29T00:13:40.791Z,14.37
2019-05-29T00:16:10.279Z,14.36
2019-05-29T00:18:39.134Z,14.35
2019-05-29T00:21:08.310Z,14.33
2019-05-29T00:23:37.148Z,14.30
2019-05-29T00:26:06.338Z,14.30
2019-05-29T00:28:34.849Z,14.31
2019-05-29T00:31:03.412Z,14.32
2019-05-29T00:33:31.779Z,14.27
2019-05-29T00:36:00.254Z,14.22
2019-05-29T00:38:29.144Z,14.15
2019-05-29T00:40:57.935Z,14.21
2019-05-29T00:43:26.327Z,14.19
2019-05-29T00:45:54.799Z,14.18
2019-05-29T00:48:23.588Z,14.16
2019-05-29T00:50:52.046Z,14.12
2019-05-29T00:53:20.859Z,14.13
2019-05-29T00:55:49.245Z,14.08
2019-05-29T00:58:17.683Z,14.06
2019-05-29T01:00:46.229Z,14.00
2019-05-29T01:03:15.869Z,13.95
2019-05-29T01:05:44.813Z,13.95
2019-05-29T01:08:14.430Z,14.00
2019-05-29T01:10:43.008Z,13.99
2019-05-29T01:13:11.384Z,13.98
2019-05-29T01:15:39.862Z,13.96
2019-05-29T01:18:08.379Z,13.93
2019-05-29T01:20:37.236Z,13.90
2019-05-29T01:23:05.599Z,13.81
2019-05-29T01:25:34.014Z,13.77
2019-05-29T01:28:02.538Z,13.77
2019-05-29T01:30:31.002Z,13.77
2019-05-29T01:32:59.445Z,13.71
2019-05-29T01:35:27.893Z,13.66
2019-05-29T01:37:56.396Z,13.66
2019-05-29T01:40:27.939Z,13.67
2019-05-29T01:42:55.003Z,13.65
2019-05-29T01:45:23.631Z,13.55
2019-05-29T01:47:52.085Z,13.56
2019-05-29T01:50:21.750Z,13.54
2019-05-29T01:52:50.725Z,13.57
2019-05-29T01:55:19.824Z,13.52
2019-05-29T01:57:48.307Z,13.57
2019-05-29T02:00:17.807Z,13.57
2019-05-29T02:02:46.336Z,13.60
2019-05-29T02:05:16.063Z,13.55
2019-05-29T02:07:44.629Z,13.49
2019-05-29T02:10:13.458Z,13.49
2019-05-29T02:12:41.827Z,13.45
2019-05-29T02:15:24.751Z,13.45
2019-05-29T02:17:41.149Z,13.42
2019-05-29T02:20:10.202Z,13.45
2019-05-29T02:22:38.676Z,13.49
2019-05-29T02:25:07.592Z,13.47
2019-05-29T02:27:36.407Z,13.49
2019-05-29T02:30:08.193Z,13.45
2019-05-29T02:32:36.802Z,13.48
2019-05-29T02:35:08.811Z,13.47
2019-05-29T02:37:37.276Z,13.39
2019-05-29T02:40:07.401Z,13.40
2019-05-29T02:42:35.860Z,13.33
2019-05-29T02:45:05.959Z,13.34
2019-05-29T02:47:34.375Z,13.33
2019-05-29T02:50:03.498Z,13.23
2019-05-29T02:52:31.895Z,13.28
2019-05-29T02:55:00.286Z,13.30
2019-05-29T02:57:29.114Z,13.30
2019-05-29T02:59:57.745Z,13.29
2019-05-29T03:02:27.793Z,13.30
2019-05-29T03:04:56.536Z,13.26
2019-05-29T03:07:26.343Z,13.30
2019-05-29T03:09:54.957Z,13.31
2019-05-29T03:12:24.929Z,13.30
2019-05-29T03:14:53.429Z,13.26
2019-05-29T03:17:23.699Z,13.24
2019-05-29T03:19:52.407Z,13.23
2019-05-29T03:22:21.047Z,13.18
2019-05-29T03:24:49.502Z,13.12
2019-05-29T03:27:17.940Z,13.13
2019-05-29T03:29:46.320Z,13.09
2019-05-29T03:32:14.894Z,13.11
2019-05-29T03:34:46.941Z,13.13
2019-05-29T03:37:14.106Z,13.08
2019-05-29T03:39:42.543Z,13.15
2019-05-29T03:42:11.007Z,13.02
2019-05-29T03:44:39.436Z,13.04
2019-05-29T03:47:07.884Z,13.05
2019-05-29T03:49:37.446Z,12.99
2019-05-29T03:52:05.973Z,13.03
2019-05-29T03:54:35.464Z,13.01
2019-05-29T03:57:04.053Z,12.91
2019-05-29T03:59:32.749Z,12.90
2019-05-29T04:02:01.356Z,12.99
2019-05-29T04:04:31.374Z,12.99
2019-05-29T04:07:00.578Z,12.85
2019-05-29T04:09:29.288Z,12.86
2019-05-29T04:11:58.112Z,12.83
2019-05-29T04:14:27.614Z,12.80
2019-05-29T04:16:59.602Z,12.82
2019-05-29T04:19:27.836Z,12.84
2019-05-29T04:22:08.574Z,12.79
2019-05-29T04:24:39.461Z,12.89
2019-05-29T04:27:09.728Z,12.86
2019-05-29T04:29:38.470Z,12.89
2019-05-29T04:32:06.995Z,12.93
2019-05-29T04:34:36.318Z,12.85
2019-05-29T04:37:07.436Z,13.02
2019-05-29T04:39:36.933Z,13.00
2019-05-29T04:42:05.525Z,12.99
2019-05-29T04:44:35.813Z,13.00
2019-05-29T04:47:10.922Z,12.96
2019-05-29T04:49:36.153Z,12.93
2019-05-29T04:52:04.882Z,12.97
2019-05-29T04:54:35.238Z,13.09
2019-05-29T04:57:04.057Z,13.15
2019-05-29T04:59:33.027Z,13.11
2019-05-29T05:02:01.657Z,13.16
2019-05-29T05:04:31.000Z,13.16
2019-05-29T05:06:59.514Z,13.19
2019-05-29T05:09:29.230Z,13.26
2019-05-29T05:11:57.750Z,13.33
2019-05-29T05:14:26.203Z,13.28
2019-05-29T05:16:54.628Z,13.27
2019-05-29T05:19:23.057Z,13.30
2019-05-29T05:21:51.474Z,13.27
2019-05-29T05:24:20.192Z,13.26
2019-05-29T05:26:48.723Z,13.21
2019-05-29T05:29:17.487Z,13.31
2019-05-29T05:31:45.842Z,13.34
2019-05-29T05:34:14.246Z,13.18
2019-05-29T05:36:42.769Z,13.21
2019-05-29T05:39:11.148Z,13.33
2019-05-29T05:41:39.692Z,13.33
2019-05-29T05:44:08.835Z,13.40
2019-05-29T05:46:37.233Z,13.53
2019-05-29T05:49:06.830Z,13.63
2019-05-29T05:51:38.354Z,13.70
2019-05-29T05:54:05.515Z,13.66
2019-05-29T05:56:33.965Z,13.73
2019-05-29T05:59:02.454Z,13.69
2019-05-29T06:01:31.759Z,13.72
2019-05-29T06:04:00.397Z,13.79
2019-05-29T06:06:28.843Z,13.80
2019-05-29T06:08:57.290Z,13.83
2019-05-29T06:11:25.696Z,13.54
2019-05-29T06:13:54.445Z,13.53
2019-05-29T06:16:22.923Z,13.34
2019-05-29T06:18:51.616Z,13.35
2019-05-29T06:21:20.064Z,13.42
2019-05-29T06:23:48.555Z,13.62
2019-05-29T06:26:17.075Z,13.73
2019-05-29T06:28:45.641Z,13.83
2019-05-29T06:31:14.111Z,14.00
2019-05-29T06:33:43.680Z,14.20
2019-05-29T06:36:12.663Z,14.47
2019-05-29T06:38:42.186Z,14.44
2019-05-29T06:41:10.907Z,14.56
2019-05-29T06:43:39.882Z,14.74
2019-05-29T06:46:08.528Z,15.06
2019-05-29T06:48:46.672Z,15.26
2019-05-29T06:51:07.839Z,15.49
2019-05-29T06:53:37.623Z,15.53
2019-05-29T06:56:06.408Z,15.40
2019-05-29T06:58:35.906Z,15.75
2019-05-29T07:01:04.471Z,15.84
2019-05-29T07:03:32.834Z,16.24
2019-05-29T07:06:01.400Z,16.78
2019-05-29T07:08:38.767Z,16.94
2019-05-29T07:11:00.041Z,16.95
2019-05-29T07:13:28.417Z,17.20
2019-05-29T07:15:56.778Z,17.60
2019-05-29T07:18:25.238Z,17.82
2019-05-29T07:20:54.022Z,17.98
2019-05-29T07:23:22.668Z,18.20
2019-05-29T07:25:51.156Z,18.43
2019-05-29T07:28:19.800Z,18.13
2019-05-29T07:30:59.409Z,17.98
2019-05-29T07:33:18.510Z,18.27
2019-05-29T07:35:47.804Z,18.48
2019-05-29T07:38:16.570Z,18.28
2019-05-29T07:40:47.562Z,17.73
2019-05-29T07:43:15.597Z,18.00
2019-05-29T07:45:44.152Z,17.54
2019-05-29T07:48:12.645Z,17.54
2019-05-29T07:50:42.140Z,17.97
2019-05-29T07:53:10.666Z,18.22
2019-05-29T07:55:40.394Z,18.30
2019-05-29T07:58:09.347Z,18.66
2019-05-29T08:01:01.079Z,18.39
2019-05-29T08:03:08.708Z,17.90
2019-05-29T08:05:37.174Z,17.03
2019-05-29T08:08:05.599Z,16.53
2019-05-29T08:10:34.157Z,16.41
2019-05-29T08:13:02.535Z,16.45
2019-05-29T08:15:30.981Z,17.54
2019-05-29T08:17:59.670Z,18.77
2019-05-29T08:20:28.458Z,19.11
2019-05-29T08:22:57.147Z,20.23
2019-05-29T08:25:25.595Z,20.24
2019-05-29T08:27:54.012Z,19.60
2019-05-29T08:30:22.605Z,18.82
2019-05-29T08:32:51.348Z,18.72
2019-05-29T08:35:19.810Z,18.34
2019-05-29T08:37:49.141Z,18.38
2019-05-29T08:40:18.425Z,19.39
2019-05-29T08:42:47.422Z,19.51
2019-05-29T08:45:17.844Z,19.29
2019-05-29T08:47:46.211Z,18.75
2019-05-29T08:50:18.513Z,18.47
2019-05-29T08:52:45.984Z,17.78
2019-05-29T08:55:14.776Z,18.33
2019-05-29T08:57:44.229Z,19.58
2019-05-29T09:00:13.470Z,20.00
2019-05-29T09:02:42.702Z,20.44
2019-05-29T09:05:11.398Z,20.07
2019-05-29T09:07:39.748Z,19.48
2019-05-29T09:10:09.456Z,18.79
2019-05-29T09:12:38.360Z,18.80
2019-05-29T09:15:08.387Z,18.53
2019-05-29T09:17:37.363Z,18.27
2019-05-29T09:20:07.704Z,18.97
2019-05-29T09:22:37.617Z,18.94
2019-05-29T09:25:06.647Z,18.58
2019-05-29T09:27:35.253Z,18.81
2019-05-29T09:30:07.289Z,19.26
2019-05-29T09:32:49.532Z,19.50
2019-05-29T09:35:06.344Z,19.23
2019-05-29T09:37:34.789Z,19.01
2019-05-29T09:40:03.505Z,18.27
2019-05-29T09:42:31.924Z,18.36
2019-05-29T09:45:00.381Z,18.35
2019-05-29T09:47:28.842Z,18.05
2019-05-29T09:49:57.311Z,17.93
2019-05-29T09:52:25.707Z,18.00
2019-05-29T09:54:54.670Z,18.13
2019-05-29T09:57:23.228Z,17.90
2019-05-29T09:59:53.876Z,17.78
2019-05-29T10:02:21.935Z,17.62
2019-05-29T10:04:50.459Z,17.53
2019-05-29T10:07:18.909Z,16.95
2019-05-29T10:09:47.321Z,16.82
2019-05-29T10:12:15.835Z,17.02
2019-05-29T10:14:44.290Z,17.12
2019-05-29T10:17:13.332Z,17.12
2019-05-29T10:19:41.875Z,17.60
2019-05-29T10:22:10.273Z,17.69
2019-05-29T10:24:38.752Z,17.76
2019-05-29T10:27:07.268Z,18.00
2019-05-29T10:29:35.749Z,18.10
2019-05-29T10:32:04.274Z,17.96
2019-05-29T10:34:32.735Z,17.81
2019-05-29T10:37:01.275Z,18.02
2019-05-29T10:39:29.662Z,18.57
2019-05-29T10:41:58.046Z,17.81
2019-05-29T10:44:26.952Z,18.38
2019-05-29T10:46:56.606Z,18.83
2019-05-29T10:49:25.454Z,19.09
2019-05-29T10:52:12.893Z,18.45
2019-05-29T10:54:24.132Z,18.97
2019-05-29T10:56:53.058Z,19.38
2019-05-29T10:59:21.633Z,18.84
2019-05-29T11:01:51.284Z,18.39
2019-05-29T11:04:20.313Z,18.28
2019-05-29T11:06:50.033Z,17.98
2019-05-29T11:09:18.774Z,17.91
2019-05-29T11:11:48.447Z,17.99
2019-05-29T11:14:17.135Z,17.94
2019-05-29T11:16:46.818Z,18.36
2019-05-29T11:19:15.486Z,18.47
2019-05-29T11:21:44.332Z,18.61
2019-05-29T11:24:12.779Z,18.59
2019-05-29T11:26:41.234Z,18.29
2019-05-29T11:29:10.079Z,18.46
2019-05-29T11:31:38.526Z,18.76
2019-05-29T11:34:07.092Z,18.99
2019-05-29T11:36:35.549Z,19.26
2019-05-29T11:39:06.435Z,19.72
2019-05-29T11:41:34.923Z,20.66
2019-05-29T11:44:03.439Z,21.15
2019-05-29T11:46:31.993Z,21.17
2019-05-29T11:49:00.394Z,20.89
2019-05-29T11:51:28.836Z,19.33
2019-05-29T11:53:57.592Z,19.48
2019-05-29T11:56:26.217Z,20.25
2019-05-29T11:58:54.865Z,20.53
2019-05-29T12:01:23.318Z,21.06
2019-05-29T12:04:15.448Z,21.94
2019-05-29T12:06:22.162Z,21.72
2019-05-29T12:08:51.465Z,20.92
2019-05-29T12:11:19.965Z,20.53
2019-05-29T12:13:48.338Z,22.01
2019-05-29T12:16:17.189Z,25.92
2019-05-29T12:18:45.639Z,29.89
2019-05-29T12:21:14.357Z,32.98
2019-05-29T12:23:43.042Z,35.63
2019-05-29T12:26:21.735Z,35.63
2019-05-29T12:28:41.910Z,36.70
2019-05-29T12:31:10.433Z,37.85
2019-05-29T12:33:38.914Z,36.42
2019-05-29T12:36:07.730Z,35.23
2019-05-29T12:38:36.150Z,35.82
2019-05-29T12:41:05.103Z,35.69
2019-05-29T12:43:33.568Z,37.55
2019-05-29T12:46:02.243Z,38.93
2019-05-29T12:48:30.729Z,39.49
2019-05-29T12:51:00.248Z,38.19
2019-05-29T12:53:31.257Z,38.86
2019-05-29T12:56:00.543Z,39.48
2019-05-29T12:58:29.302Z,37.61
2019-05-29T13:00:58.561Z,32.97
2019-05-29T13:03:27.149Z,33.77
2019-05-29T13:05:56.053Z,33.73
2019-05-29T13:08:24.939Z,36.15
2019-05-29T13:10:54.244Z,38.15
2019-05-29T13:13:22.941Z,39.23
2019-05-29T13:15:51.685Z,38.24
2019-05-29T13:18:20.145Z,39.62
2019-05-29T13:20:48.516Z,41.21
2019-05-29T13:23:16.967Z,42.03
2019-05-29T13:25:45.446Z,41.18
2019-05-29T13:28:13.997Z,39.74
2019-05-29T13:30:42.537Z,37.34
2019-05-29T13:33:11.010Z,33.14
2019-05-29T13:35:39.555Z,34.73
2019-05-29T13:38:08.112Z,37.33
2019-05-29T13:40:36.589Z,38.53
2019-05-29T13:43:13.161Z,39.79
2019-05-29T13:45:35.350Z,41.00
2019-05-29T13:48:05.227Z,37.46
2019-05-29T13:50:33.925Z,34.46
2019-05-29T13:53:03.539Z,34.09
2019-05-29T13:55:32.273Z,33.46
2019-05-29T13:58:01.642Z,31.47
2019-05-29T14:00:34.418Z,28.91
2019-05-29T14:03:02.456Z,26.40
2019-05-29T14:05:30.885Z,24.70
2019-05-29T14:08:00.525Z,25.19
2019-05-29T14:10:29.140Z,27.61
2019-05-29T14:12:58.836Z,30.28
2019-05-29T14:15:27.520Z,31.93
2019-05-29T14:17:56.086Z,32.79
2019-05-29T14:20:24.599Z,32.72
2019-05-29T14:22:52.991Z,31.71
2019-05-29T14:25:21.583Z,31.47
2019-05-29T14:27:50.362Z,30.48
2019-05-29T14:30:19.235Z,30.36
2019-05-29T14:32:48.092Z,28.88
2019-05-29T14:35:16.709Z,27.36
2019-05-29T14:37:45.259Z,26.97
2019-05-29T14:40:14.380Z,26.65
2019-05-29T14:42:42.905Z,25.69
2019-05-29T14:45:14.229Z,25.71
2019-05-29T14:47:42.763Z,25.47
2019-05-29T14:50:13.529Z,25.21
2019-05-29T14:52:42.109Z,24.82
2019-05-29T14:55:17.451Z,24.59
2019-05-29T14:57:41.307Z,24.37
2019-05-29T15:00:24.428Z,23.91
2019-05-29T15:02:44.432Z,23.19
2019-05-29T15:05:14.960Z,22.89
2019-05-29T15:07:43.769Z,22.79
2019-05-29T15:10:24.989Z,22.46
2019-05-29T15:12:42.622Z,22.13
2019-05-29T15:15:15.606Z,21.80
2019-05-29T15:17:42.480Z,21.64
2019-05-29T15:20:12.970Z,21.26
2019-05-29T15:22:42.360Z,21.12
2019-05-29T15:25:19.990Z,21.34
2019-05-29T15:27:41.440Z,21.71
2019-05-29T15:30:11.546Z,21.80
2019-05-29T15:32:41.351Z,21.82
2019-05-29T15:35:14.362Z,21.80
2019-05-29T15:37:40.477Z,21.43
2019-05-29T15:40:10.862Z,21.21
2019-05-29T15:42:39.529Z,21.07
2019-05-29T15:45:09.721Z,20.98
2019-05-29T15:47:38.327Z,20.99
2019-05-29T15:50:09.172Z,21.21
2019-05-29T15:52:37.836Z,21.02
2019-05-29T15:55:22.431Z,21.10
2019-05-29T15:57:38.558Z,21.03
2019-05-29T16:00:11.869Z,21.07
2019-05-29T16:02:42.198Z,21.01
2019-05-29T16:05:13.171Z,20.77
2019-05-29T16:07:41.830Z,20.52
2019-05-29T16:10:14.667Z,20.28
2019-05-29T16:12:41.618Z,19.97
2019-05-29T16:15:11.433Z,19.88
2019-05-29T16:17:40.080Z,19.78
2019-05-29T16:20:10.519Z,19.84
2019-05-29T16:22:39.215Z,19.94
2019-05-29T16:25:08.344Z,20.11
2019-05-29T16:27:36.720Z,20.06
2019-05-29T16:30:08.975Z,19.73
2019-05-29T16:32:37.556Z,19.47
2019-05-29T16:35:08.441Z,19.31
2019-05-29T16:37:37.247Z,19.13
2019-05-29T16:40:08.498Z,19.10
2019-05-29T16:42:37.033Z,18.96
2019-05-29T16:45:08.840Z,18.80
2019-05-29T16:47:37.316Z,18.69
2019-05-29T16:50:08.621Z,18.66
2019-05-29T16:52:38.989Z,18.61
2019-05-29T16:55:07.907Z,18.63
2019-05-29T16:57:36.357Z,18.76
2019-05-29T17:00:13.606Z,18.75
2019-05-29T17:02:42.408Z,18.67
2019-05-29T17:05:11.334Z,18.58
2019-05-29T17:07:39.945Z,18.60
2019-05-29T17:10:10.674Z,18.57
2019-05-29T17:12:39.463Z,18.63
2019-05-29T17:15:16.954Z,18.57
2019-05-29T17:17:45.642Z,18.60
2019-05-29T17:20:14.728Z,18.66
2019-05-29T17:22:43.181Z,18.59
2019-05-29T17:25:11.804Z,18.63
2019-05-29T17:27:40.275Z,18.66
2019-05-29T17:30:09.102Z,18.63
2019-05-29T17:32:37.555Z,18.62
2019-05-29T17:35:08.072Z,18.59
2019-05-29T17:37:36.895Z,18.54
2019-05-29T17:40:08.567Z,18.46
2019-05-29T17:42:37.016Z,18.30
2019-05-29T17:45:08.846Z,17.97
2019-05-29T17:47:38.153Z,17.88
2019-05-29T17:50:08.181Z,17.80
2019-05-29T17:52:36.652Z,17.94
2019-05-29T17:55:09.211Z,17.80
2019-05-29T17:57:37.685Z,17.67
2019-05-29T18:00:11.273Z,17.71
2019-05-29T18:02:51.503Z,17.75
2019-05-29T18:05:12.391Z,17.71
2019-05-29T18:07:40.912Z,17.79
2019-05-29T18:10:10.761Z,17.70
2019-05-29T18:12:39.677Z,17.68
2019-05-29T18:15:08.590Z,17.62
2019-05-29T18:17:37.056Z,17.62
2019-05-29T18:20:07.101Z,17.62
2019-05-29T18:22:35.665Z,17.57
2019-05-29T18:25:07.638Z,17.54
2019-05-29T18:27:36.310Z,17.51
2019-05-29T18:30:08.200Z,17.47
2019-05-29T18:32:37.335Z,17.48
2019-05-29T18:35:30.050Z,17.44
2019-05-29T18:37:58.517Z,17.41
2019-05-29T18:40:28.773Z,17.37
2019-05-29T18:43:02.502Z,17.35
2019-05-29T18:45:31.317Z,17.32
2019-05-29T18:48:00.038Z,17.32
2019-05-29T18:50:29.680Z,17.30
2019-05-29T18:52:58.389Z,17.26
2019-05-29T18:55:29.772Z,17.23
2019-05-29T18:58:02.159Z,17.10
2019-05-29T19:00:31.536Z,17.10
2019-05-29T19:03:00.192Z,17.07
2019-05-29T19:05:29.754Z,17.06
2019-05-29T19:07:59.917Z,17.02
2019-05-29T19:10:29.777Z,16.99
2019-05-29T19:12:58.659Z,17.01
2019-05-29T19:15:32.024Z,16.95
2019-05-29T19:18:01.285Z,16.92
2019-05-29T19:20:30.520Z,16.87
2019-05-29T19:22:59.311Z,16.84
2019-05-29T19:25:29.037Z,16.78
2019-05-29T19:27:57.789Z,16.74
2019-05-29T19:30:26.904Z,16.73
2019-05-29T19:32:55.712Z,16.68
2019-05-29T19:35:25.426Z,16.60
2019-05-29T19:37:57.341Z,16.51
2019-05-29T19:40:26.100Z,16.48
2019-05-29T19:42:56.409Z,16.45
2019-05-29T19:45:30.546Z,16.38
2019-05-29T19:47:59.577Z,16.37
2019-05-29T19:50:28.767Z,16.36
2019-05-29T19:52:57.498Z,16.33
2019-05-29T19:55:36.307Z,16.29
2019-05-29T19:58:06.359Z,16.29
2019-05-29T20:00:36.801Z,16.25
2019-05-29T20:03:05.722Z,16.18
2019-05-29T20:05:34.948Z,16.07
2019-05-29T20:08:03.678Z,16.06
2019-05-29T20:10:33.442Z,16.07
2019-05-29T20:13:02.364Z,16.06
2019-05-29T20:15:31.941Z,16.03
2019-05-29T20:18:00.529Z,16.08
2019-05-29T20:20:30.236Z,15.99
2019-05-29T20:22:58.800Z,15.91
2019-05-29T20:25:27.258Z,15.91
2019-05-29T20:28:05.855Z,15.91
2019-05-29T20:30:26.151Z,15.83
2019-05-29T20:32:54.934Z,15.80
2019-05-29T20:35:23.394Z,15.77
2019-05-29T20:37:51.870Z,15.76
2019-05-29T20:40:20.249Z,15.74
2019-05-29T20:42:48.700Z,15.74
2019-05-29T20:45:18.831Z,15.70
2019-05-29T20:47:47.238Z,15.70
2019-05-29T20:50:15.803Z,15.67
2019-05-29T20:52:44.443Z,15.62
2019-05-29T20:55:14.103Z,15.56
2019-05-29T20:57:42.561Z,15.58
2019-05-29T21:00:12.371Z,15.59
2019-05-29T21:02:42.326Z,15.62
2019-05-29T21:05:11.161Z,15.55
2019-05-29T21:07:40.942Z,15.49
2019-05-29T21:10:10.043Z,15.42
2019-05-29T21:12:41.902Z,15.39
2019-05-29T21:15:09.017Z,15.39
2019-05-29T21:17:37.931Z,15.35
2019-05-29T21:20:08.540Z,15.29
2019-05-29T21:22:36.982Z,15.28
2019-05-29T21:25:14.855Z,15.23
2019-05-29T21:27:43.981Z,15.26
2019-05-29T21:30:10.289Z,15.24
2019-05-29T21:32:40.178Z,15.25
2019-05-29T21:35:08.984Z,15.19
2019-05-29T21:37:38.210Z,15.17
2019-05-29T21:40:07.153Z,15.16
2019-05-29T21:42:36.533Z,15.15
2019-05-29T21:45:06.777Z,15.15
2019-05-29T21:47:35.231Z,15.16
2019-05-29T21:50:05.945Z,15.14
2019-05-29T21:52:34.436Z,15.11
2019-05-29T21:55:02.995Z,15.07
2019-05-29T21:57:31.460Z,14.99
2019-05-29T22:00:00.293Z,14.93
2019-05-29T22:02:28.819Z,14.93
2019-05-29T22:04:57.796Z,14.91
2019-05-29T22:07:26.308Z,14.93
2019-05-29T22:09:54.868Z,14.95
2019-05-29T22:12:23.307Z,14.97
2019-05-29T22:14:53.201Z,14.95
2019-05-29T22:17:21.779Z,14.90
2019-05-29T22:19:50.826Z,14.84
2019-05-29T22:22:19.355Z,14.79
2019-05-29T22:24:47.808Z,14.79
2019-05-29T22:27:16.279Z,14.75
2019-05-29T22:29:44.860Z,14.75
2019-05-29T22:32:13.349Z,14.75
2019-05-29T22:34:41.943Z,14.72
2019-05-29T22:37:10.798Z,14.71
2019-05-29T22:39:39.260Z,14.63
2019-05-29T22:42:07.710Z,14.60
2019-05-29T22:44:36.114Z,14.58
2019-05-29T22:47:04.831Z,14.59
2019-05-29T22:49:33.385Z,14.55
2019-05-29T22:52:02.262Z,14.51
2019-05-29T22:54:30.923Z,14.50
2019-05-29T22:56:59.995Z,14.49
2019-05-29T22:59:31.836Z,14.49
2019-05-29T23:01:58.642Z,14.47
2019-05-29T23:04:27.421Z,14.48
2019-05-29T23:06:56.379Z,14.50
2019-05-29T23:09:24.817Z,14.50
2019-05-29T23:11:54.151Z,14.47
2019-05-29T23:14:22.748Z,14.45
2019-05-29T23:16:52.378Z,14.46
2019-05-29T23:19:20.853Z,14.40
2019-05-29T23:21:49.235Z,14.36
2019-05-29T23:24:17.609Z,14.37
2019-05-29T23:26:46.009Z,14.30
2019-05-29T23:29:14.459Z,14.30
2019-05-29T23:31:42.857Z,14.29
2019-05-29T23:34:11.522Z,14.19
2019-05-29T23:36:39.939Z,14.16
2019-05-29T23:39:08.796Z,14.11
2019-05-29T23:41:37.225Z,14.05
2019-05-29T23:44:05.674Z,14.03
2019-05-29T23:46:34.088Z,13.96
2019-05-29T23:49:03.851Z,13.88
2019-05-29T23:51:32.442Z,13.86
2019-05-29T23:54:01.880Z,13.85
2019-05-29T23:56:30.312Z,13.79
2019-05-29T23:58:59.917Z,13.79
